Terminal Aerodrome Forecast
Issued by NWS Buffalo, NY

Home | Current Version | Previous Version | Text Only | Print | Product List | Glossary On
Versions: 1 2 3 4 5 6 7 8 9 10 11 12 13 14 15 16 17 18 19 20 21 22 23 24 25
217
FTUS41 KBUF 180319 AAA
TAFART
TAF AMD
KART 180319Z 1803/1824 VRB05KT 3SM -SHRA BR OVC012
     FM180800 19005KT 1SM -SHRA BR OVC006
     FM181200 20006KT 2SM BR VCSH OVC008
     FM182000 24006KT 5SM BR OVC012=

USA.gov is the U.S. government's official web portal to all federal, state and local government web resources and services.